Latest Weather Observations for Warruwi

IDD60801

Issued at 10:01 pm CST Friday 19 December 2014 (issued every 30 minutes, with the page automatically refreshed every 10 minutes)

About weather observations | Map of weather stations | Latest weather observations for NT | Other Formats
Station Details ID: 014401 Name: WARRUWI AIRPORT Lat: -11.65 Lon: 133.38 Height: 19.2 m
Data from the previous 72 hours. | See also: Recent months at Warruwi
Date/Time
CST
Temp
°C
App
Temp
°C
Dew
Point
Rel
Hum
%
Delta-T
°C
Wind Press
QNH
hPa
Press
MSL
hPa
Rain
since 9 am
mm
Dir
 
Spd
km/h
Gust
km/h
Spd
kts
Gust
kts
19/10:00pm 30.3 35.5 24.2 70 4.3 N 4 7 2 4 1010.4 1010.2 0.0
19/09:30pm 30.5 35.7 24.2 69 4.4 N 4 7 2 4 1010.2 1010.0 0.0
19/09:00pm 30.6 35.6 24.5 70 4.3 NNW 6 11 3 6 1009.8 1009.6 0.0
19/08:30pm 30.6 35.5 24.3 69 4.4 N 6 7 3 4 1009.4 1009.2 0.0
19/08:00pm 30.9 35.9 24.5 68 4.5 N 6 9 3 5 1009.1 1008.9 0.0
19/07:30pm 31.1 35.9 24.2 66 4.8 NNE 6 9 3 5 1008.5 1008.3 0.0
19/07:00pm 31.1 35.9 24.5 68 4.6 N 7 15 4 8 1007.7 1007.5 0.0
19/06:30pm 31.7 36.4 24.3 65 5.2 N 7 13 4 7 1007.2 1007.0 0.0
19/06:00pm 32.2 36.1 24.3 63 5.5 N 11 19 6 10 1007.0 1006.8 0.0
19/05:30pm 32.6 36.4 23.5 58 6.3 N 9 17 5 9 1006.8 1006.6 0.0
19/05:00pm 32.9 36.7 23.5 57 6.5 N 9 19 5 10 1006.9 1006.7 0.0
19/04:30pm 33.5 37.0 23.5 55 7.0 N 11 17 6 9 1007.2 1007.0 0.0
19/04:00pm 33.6 36.6 23.3 55 7.1 NNW 13 20 7 11 1007.2 1007.0 0.0
19/03:30pm 34.7 39.0 24.3 54 7.3 N 9 17 5 9 1007.4 1007.2 0.0
19/03:00pm 35.2 38.8 23.8 51 8.0 N 11 19 6 10 1007.9 1007.7 0.0
19/02:30pm 35.2 39.0 23.5 50 8.2 N 9 17 5 9 1008.3 1008.1 0.0
19/02:00pm 35.3 39.4 23.9 51 8.0 N 9 17 5 9 1008.6 1008.4 0.0
19/01:30pm 34.5 38.3 23.5 52 7.7 N 9 15 5 8 1008.9 1008.7 0.0
19/01:00pm 33.7 38.2 23.7 56 7.0 NW 6 9 3 5 1009.4 1009.2 0.0
19/12:30pm 34.3 38.2 23.0 51 7.8 W 7 15 4 8 1009.9 1009.7 0.0
19/12:00pm 34.4 37.4 23.4 52 7.7 W 13 19 7 10 1010.4 1010.2 0.0
19/11:30am 34.2 36.9 21.3 47 8.7 WNW 9 15 5 8 1010.7 1010.5 0.0
19/11:00am 33.0 36.4 23.3 56 6.7 W 11 15 6 8 1011.1 1010.9 0.0
19/10:30am 32.5 36.7 24.8 64 5.4 W 11 19 6 10 1011.3 1011.1 0.0
19/10:00am 32.8 36.8 23.7 58 6.3 W 9 15 5 8 1011.2 1011.0 0.0
19/09:30am 31.5 36.5 25.4 70 4.3 W 9 17 5 9 1011.4 1011.2 0.0
19/09:00am 30.9 36.0 25.5 73 3.8 WNW 9 13 5 7 1011.4 1011.2 0.0
19/08:30am 30.9 35.6 25.0 71 4.2 W 9 15 5 8 1011.4 1011.2 0.0
19/08:00am 31.1 36.4 25.2 71 4.2 WNW 7 11 4 6 1011.1 1010.9 0.0
19/07:30am 30.4 35.9 24.1 69 4.4 WNW 2 6 1 3 1011.1 1010.9 0.0
19/07:00am 29.5 34.5 23.9 72 3.9 NW 4 7 2 4 1010.9 1010.7 0.0
19/06:30am 29.6 35.3 25.6 79 2.8 WNW 6 9 3 5 1010.5 1010.3 0.0
19/06:00am 29.4 35.2 25.2 78 3.0 W 4 6 2 3 1010.1 1009.9 0.0
19/05:30am 29.4 34.8 24.5 75 3.4 NW 4 7 2 4 1009.8 1009.6 0.0
19/05:00am 29.8 35.2 25.1 76 3.3 WNW 6 11 3 6 1009.6 1009.4 0.0
19/04:30am 29.9 35.3 25.2 76 3.3 WNW 6 11 3 6 1009.5 1009.3 0.0
19/04:00am 29.5 35.5 25.5 79 2.8 NNW 4 7 2 4 1009.4 1009.2 0.0
19/03:30am 29.4 35.7 25.4 79 2.8 NNW 2 4 1 2 1009.3 1009.1 0.0
19/03:00am 29.4 35.2 25.2 78 3.0 NW 4 6 2 3 1009.0 1008.8 0.0
19/02:30am 29.4 34.8 25.2 78 3.0 NW 6 9 3 5 1008.8 1008.6 0.0
19/02:00am 29.5 35.4 25.3 78 3.0 NNW 4 9 2 5 1009.1 1008.9 0.0
19/01:30am 29.6 35.4 25.1 77 3.2 NNW 4 6 2 3 1009.3 1009.1 0.0
19/01:00am 29.8 35.7 25.3 77 3.2 NNW 4 7 2 4 1009.4 1009.2 0.0
19/12:30am 29.9 35.8 25.4 77 3.2 NNW 4 9 2 5 1009.6 1009.4 0.0
19/12:00am 30.0 35.8 25.1 75 3.5 NW 4 7 2 4 1010.2 1010.0 0.0
 
Date/Time
CST
Temp
°C
App
Temp
°C
Dew
Point
Rel
Hum
%
Delta-T
°C
Wind Press
QNH
hPa
Press
MSL
hPa
Rain
since 9 am
mm
Dir
 
Spd
km/h
Gust
km/h
Spd
kts
Gust
kts
18/11:30pm 30.1 35.6 24.7 73 3.8 NW 4 9 2 5 1010.5 1010.3 0.0
18/11:00pm 30.1 35.9 25.2 75 3.5 NW 4 7 2 4 1010.4 1010.2 0.0
18/10:30pm 30.2 35.5 25.0 73 3.7 NW 6 11 3 6 1010.0 1009.8 0.0
18/10:00pm 30.2 35.5 25.0 73 3.7 NW 6 9 3 5 1009.8 1009.6 0.0
18/09:30pm 30.2 35.5 25.0 73 3.7 NW 6 9 3 5 1009.6 1009.4 0.0
18/09:00pm 30.3 36.0 25.6 76 3.3 NNW 6 11 3 6 1008.9 1008.7 0.0
18/08:30pm 30.4 36.0 25.5 75 3.5 NNW 6 13 3 7 1008.7 1008.5 0.0
18/08:00pm 30.5 35.4 24.6 70 4.1 NW 7 13 4 7 1008.3 1008.1 0.0
18/07:30pm 30.4 35.5 25.0 73 3.8 NW 7 13 4 7 1008.1 1007.9 0.0
18/07:00pm 30.6 36.0 25.2 73 3.8 NNW 6 13 3 7 1007.6 1007.4 0.0
18/06:30pm 30.9 35.5 24.8 70 4.3 NNW 9 15 5 8 1007.4 1007.2 0.0
18/06:00pm 31.0 35.4 25.1 71 4.2 NNW 11 19 6 10 1007.3 1007.1 0.0
18/05:30pm 32.0 36.9 25.3 67 4.8 NNW 9 20 5 11 1007.3 1007.1 0.0
18/05:00pm 32.1 35.7 24.4 63 5.4 NNW 13 22 7 12 1007.2 1007.0 0.0
18/04:30pm 32.9 37.0 25.2 64 5.5 NNW 13 22 7 12 1006.9 1006.7 0.0
18/04:00pm 33.0 37.3 25.5 64 5.3 NNW 13 26 7 14 1007.2 1007.0 0.0
18/03:30pm 33.3 38.0 26.1 66 5.2 N 13 24 7 13 1007.5 1007.3 0.0
18/03:00pm 33.3 37.0 24.5 60 6.2 NNW 13 22 7 12 1007.6 1007.4 0.0
18/02:30pm 33.6 37.8 25.3 62 5.9 N 13 20 7 11 1008.0 1007.8 0.0
18/02:00pm 33.3 37.0 24.5 60 6.2 NNW 13 20 7 11 1008.3 1008.1 0.0
18/01:30pm 33.3 37.5 25.3 63 5.7 N 13 20 7 11 1008.7 1008.5 0.0
18/01:00pm 33.9 38.5 25.3 60 6.1 NW 11 17 6 9 1008.9 1008.7 0.0
18/12:30pm 33.4 37.8 25.1 61 5.9 NNW 11 17 6 9 1009.2 1009.0 0.0
18/12:00pm 33.4 37.8 25.1 61 5.9 NNW 11 19 6 10 1009.6 1009.4 0.0
18/11:30am 32.4 37.5 25.0 65 5.2 NW 7 13 4 7 1010.0 1009.8 0.0
18/11:00am 32.3 36.7 25.6 67 4.8 WNW 13 19 7 10 1010.4 1010.2 0.0
18/10:30am 32.3 37.0 24.9 65 5.2 NW 9 15 5 8 1010.5 1010.3 0.0
18/10:00am 32.2 36.5 25.5 67 4.8 WNW 13 19 7 10 1010.4 1010.2 0.0
18/09:30am 31.5 35.8 24.9 68 4.7 WNW 11 17 6 9 1010.4 1010.2 0.0
18/09:00am 31.4 36.8 26.0 73 3.9 WNW 9 15 5 8 1010.5 1010.3 0.0
18/08:30am 31.1 36.9 25.7 73 3.8 WNW 6 11 3 6 1010.1 1009.9 0.0
18/08:00am 30.8 36.6 26.1 76 3.4 WNW 7 13 4 7 1009.8 1009.6 0.0
18/07:30am 30.4 36.3 25.9 77 3.2 NW 6 9 3 5 1009.5 1009.3 0.0
18/07:00am 30.0 35.9 26.2 80 2.7 WNW 7 13 4 7 1009.0 1008.8 0.0
18/06:30am 29.1 35.6 25.7 82 2.4 WNW 2 6 1 3 1008.5 1008.3 0.0
18/06:00am 29.1 34.9 25.7 82 2.4 WSW 6 7 3 4 1008.0 1007.8 0.0
18/05:30am 29.1 34.5 25.5 81 2.5 WSW 7 13 4 7 1007.7 1007.5 0.0
18/05:00am 29.1 34.5 25.5 81 2.5 WSW 7 11 4 6 1007.5 1007.3 0.0
18/04:30am 29.3 34.3 24.8 77 3.2 WSW 7 11 4 6 1007.5 1007.3 0.0
18/04:00am 29.4 34.7 25.8 81 2.6 W 9 13 5 7 1007.4 1007.2 0.0
18/03:30am 29.5 34.3 25.7 80 2.7 W 11 15 6 8 1007.3 1007.1 0.0
18/03:00am 29.6 34.6 26.0 81 2.6 W 11 15 6 8 1007.2 1007.0 0.0
18/02:30am 30.0 35.1 26.2 80 2.7 WNW 11 17 6 9 1007.2 1007.0 0.0
18/02:00am 30.0 35.4 26.0 79 2.8 NW 9 19 5 10 1007.2 1007.0 0.0
18/01:30am 30.0 35.4 26.0 79 2.9 WNW 9 15 5 8 1007.4 1007.2 0.0
18/01:00am 30.1 35.2 25.6 77 3.2 WNW 9 17 5 9 1007.9 1007.7 0.0
18/12:30am 30.2 35.4 25.7 77 3.2 NW 9 15 5 8 1008.2 1008.0 0.0
18/12:00am 30.3 35.0 25.6 76 3.3 NW 11 15 6 8 1008.3 1008.1 0.0
 
Date/Time
CST
Temp
°C
App
Temp
°C
Dew
Point
Rel
Hum
%
Delta-T
°C
Wind Press
QNH
hPa
Press
MSL
hPa
Rain
since 9 am
mm
Dir
 
Spd
km/h
Gust
km/h
Spd
kts
Gust
kts
17/11:30pm 30.3 35.3 25.4 75 3.5 WNW 9 13 5 7 1008.6 1008.4 0.0
17/11:00pm 30.3 35.3 25.4 75 3.5 NW 9 15 5 8 1008.8 1008.6 0.0
17/10:30pm 30.4 36.4 26.3 79 2.9 WNW 7 15 4 8 1008.8 1008.6 0.0
17/10:00pm 30.4 36.0 26.3 79 2.9 NW 9 17 5 9 1008.8 1008.6 0.0
17/09:30pm 30.5 35.9 26.0 77 3.2 WNW 9 17 5 9 1008.4 1008.2 0.0
17/09:00pm 30.6 36.2 26.3 78 3.1 WNW 9 17 5 9 1008.2 1008.0 0.0
17/08:30pm 30.6 35.7 26.1 77 3.2 WNW 11 17 6 9 1007.9 1007.7 0.0
17/08:00pm 30.5 36.7 26.4 79 2.9 WNW 6 11 3 6 1007.4 1007.2 0.0
17/07:30pm 30.5 36.4 26.2 78 3.1 NW 7 13 4 7 1006.8 1006.6 0.0
17/07:00pm 30.4 36.4 26.1 78 3.1 WNW 6 9 3 5 1006.4 1006.2 0.0
17/06:30pm 30.4 36.2 25.7 76 3.3 NNW 6 11 3 6 1006.2 1006.0 0.0
17/06:00pm 30.4 34.8 25.0 73 3.8 NW 11 19 6 10 1005.4 1005.2 0.0
17/05:30pm 31.4 34.4 24.0 65 5.2 WNW 15 20 8 11 1005.7 1005.5 0.0
17/05:00pm 32.1 34.8 22.8 58 6.4 NW 13 26 7 14 1005.0 1004.8 0.0
17/04:30pm 32.3 35.5 24.9 65 5.2 NW 17 30 9 16 1004.9 1004.7 0.0
17/04:00pm 32.9 37.1 25.9 66 5.0 NNW 15 28 8 15 1005.4 1005.2 0.0
17/03:30pm 32.7 36.6 26.0 68 4.8 NW 17 28 9 15 1005.7 1005.5 0.0
17/03:00pm 33.0 37.1 25.8 66 5.2 N 15 24 8 13 1005.4 1005.2 0.0
17/02:30pm 33.3 37.8 25.8 65 5.4 N 13 30 7 16 1005.9 1005.7 0.0
17/02:00pm 32.4 37.0 26.0 69 4.6 NNW 13 20 7 11 1006.3 1006.1 0.0
17/01:30pm 33.0 37.2 25.3 64 5.5 N 13 26 7 14 1006.6 1006.4 0.0
17/01:00pm 33.9 38.1 25.3 60 6.1 NNW 13 20 7 11 1006.9 1006.7 0.0
17/12:30pm 33.9 38.5 25.3 60 6.1 NNW 11 19 6 10 1007.6 1007.4 0.0
17/12:00pm 33.3 37.3 25.0 61 5.9 NNW 13 19 7 10 1008.0 1007.8 0.0
17/11:30am 33.3 37.7 25.0 61 5.9 NNW 11 24 6 13 1008.3 1008.1 0.0
17/11:00am 33.8 37.5 25.2 60 6.1 W 15 22 8 12 1008.7 1008.5 0.0
17/10:30am 32.5 36.7 25.3 66 5.1 WNW 13 19 7 10 1008.7 1008.5 0.0
17/10:00am 32.0 37.1 25.6 69 4.5 WNW 9 15 5 8 1008.9 1008.7 0.0
17/09:30am 32.1 36.3 25.9 70 4.4 W 15 20 8 11 1008.7 1008.5 0.0
17/09:00am 31.6 36.0 26.2 73 3.9 WNW 15 20 8 11 1008.7 1008.5 0.0
17/08:30am 31.4 35.3 26.0 73 3.9 WNW 17 22 9 12 1008.6 1008.4 0.0
17/08:00am 31.3 35.6 26.1 74 3.7 W 15 22 8 12 1008.4 1008.2 0.0
17/07:30am 30.7 34.6 26.0 76 3.4 W 17 22 9 12 1008.2 1008.0 0.0
17/07:00am 30.2 34.1 26.1 79 2.9 WNW 17 22 9 12 1008.0 1007.8 0.0
17/06:30am 29.8 33.7 26.0 80 2.7 WNW 17 22 9 12 1007.5 1007.3 0.0
17/06:00am 29.7 33.3 26.1 81 2.6 WNW 19 26 10 14 1007.2 1007.0 0.0
17/05:30am 29.8 33.7 26.0 80 2.7 WNW 17 24 9 13 1007.3 1007.1 0.0
17/05:00am 29.7 34.8 26.1 81 2.6 WNW 11 19 6 10 1006.5 1006.3 0.0
17/04:30am 29.7 35.2 26.1 81 2.6 NW 9 19 5 10 1006.3 1006.1 0.0
17/04:00am 29.8 34.4 26.0 80 2.7 WNW 13 22 7 12 1006.2 1006.0 0.0
17/03:30am 29.8 34.0 26.0 80 2.7 WNW 15 20 8 11 1006.3 1006.1 0.0
17/03:00am 29.8 34.4 26.0 80 2.7 WNW 13 20 7 11 1006.4 1006.2 0.0
17/02:30am 29.9 34.8 25.9 79 2.8 WNW 11 17 6 9 1006.6 1006.4 0.0
17/02:00am 30.0 34.4 25.7 78 3.0 WNW 13 22 7 12 1006.5 1006.3 0.0
17/01:30am 30.0 34.4 25.7 78 3.1 WNW 13 19 7 10 1006.9 1006.7 0.0
17/01:00am 30.1 34.8 26.1 79 2.8 WNW 13 20 7 11 1007.1 1006.9 0.0
17/12:30am 30.1 34.8 26.1 79 2.9 WNW 13 20 7 11 1007.3 1007.1 0.0
17/12:00am 30.1 34.5 26.3 80 2.7 NW 15 24 8 13 1007.4 1007.2 0.0
 
Date/Time
CST
Temp
°C
App
Temp
°C
Dew
Point
Rel
Hum
%
Delta-T
°C
Wind Press
QNH
hPa
Press
MSL
hPa
Rain
since 9 am
mm
Dir
 
Spd
km/h
Gust
km/h
Spd
kts
Gust
kts
16/11:30pm 30.0 36.0 26.4 81 2.6 NW 7 17 4 9 1007.6 1007.4 0.0
16/11:00pm 30.1 35.7 26.3 80 2.7 NW 9 19 5 10 1007.6 1007.4 0.0
16/10:30pm 30.2 35.9 26.4 80 2.7 NW 9 15 5 8 1007.5 1007.3 0.0

Other Formats:

Comma delimited format used in spreadsheet applications
http://www.bom.gov.au/fwo/IDD60801/IDD60801.94139.axf

JavaScript Object Notation format (JSON) in row-major order
http://www.bom.gov.au/fwo/IDD60801/IDD60801.94139.json